Terminal Aerodrome Forecast
Issued by NWS

Home | Current Version | Previous Version | Text Only | Print | Product List | Glossary On
Versions: 1 2 3 4 5 6 7 8 9 10 11 12 13
767
FTUS42 KTBW 140528
TAFPIE
TAF
KPIE 140528Z 1406/1506 03011KT P6SM SKC
     FM141500 07009KT P6SM SKC
     FM141900 10008KT P6SM FEW030 FEW300
     FM142200 10007KT P6SM SCT030 SCT300=

USA.gov is the U.S. government's official web portal to all federal, state and local government web resources and services.